Blue Horizons Flying Club, Inc.

Radar AviationWeather DUATS TFRs Wunderground Accuweather Weather.com

alt : Radar

TAFs

KJXN 200404Z 2004/2024 VRB03KT P6SM BKN022
   FM200700 VRB02KT P6SM OVC010
   FM201800 20003KT P6SM OVC100
KCLE 200254Z 2003/2106 34005KT P6SM OVC025
   FM200600 VRB03KT P6SM BKN015 OVC020
   FM201600 VRB03KT P6SM SCT015 OVC025
KDTW 200249Z 2003/2106 36003KT P6SM SCT025 BKN200
   FM200900 VRB04KT P6SM OVC025
   FM210200 VRB03KT 3SM BR OVC008
KFDY 200125Z 2001/2024 VRB03KT P6SM SCT015 OVC025
     TEMPO 2002/2004 SCT025 BKN200
KFWA 192339Z 2000/2024 VRB03KT P6SM OVC025
KTOL 192323Z 2000/2024 VRB03KT P6SM SCT015 OVC025

METARs

KJXN 200456Z 00000KT 8SM BKN022 M06/M08 A3026 RMK AO2 SLP260 T10561078 410171061
KDUH 200454Z AUTO 00000KT 10SM OVC020 00/M03 A3028 RMK AO2
KFWA 200454Z 00000KT 10SM FEW032 SCT170 BKN250 M03/M06 A3027 RMK AO2 SLP261 T10331056 400061033
KDTW 200453Z 00000KT 10SM SCT025 BKN220 M05/M07 A3029 RMK AO2 SLP268 T10501072 410111056 $
KFDY 200453Z AUTO 00000KT 10SM OVC024 M01/M05 A3026 RMK AO2 SLP252 T10111050 410061017
KTDZ 200453Z AUTO 11003KT 10SM OVC024 M01/M04 A3029 RMK AO2 SLP264 T10111044 410061011 TSNO
KTOL 200452Z 00000KT 10SM OVC023 M02/M06 A3027 RMK AO2 SLP260 T10171061 410111022
KCLE 200451Z 00000KT 10SM OVC024 M02/M07 A3029 RMK AO2 SLP267 T10171067 400001017 $

alt : Satellite

alt : TFRs